createdAt,value
2022-10-03T00:00:35.712Z,13.88
2022-10-03T00:01:37.659Z,13.85
2022-10-03T00:02:28.367Z,14.00
2022-10-03T00:03:34.571Z,13.96
2022-10-03T00:04:25.833Z,13.87
2022-10-03T00:05:24.097Z,13.85
2022-10-03T00:06:02.366Z,13.85
2022-10-03T00:07:05.244Z,13.92
2022-10-03T00:07:44.521Z,14.02
2022-10-03T00:08:46.890Z,14.07
2022-10-03T00:09:25.339Z,14.11
2022-10-03T00:10:18.718Z,14.02
2022-10-03T00:11:21.087Z,13.92
2022-10-03T00:12:15.140Z,13.93
2022-10-03T00:13:15.802Z,13.92
2022-10-03T00:13:53.292Z,13.84
2022-10-03T00:14:54.835Z,13.93
2022-10-03T00:15:30.676Z,13.97
2022-10-03T00:16:14.102Z,14.03
2022-10-03T00:17:13.418Z,14.04
2022-10-03T00:17:59.012Z,13.90
2022-10-03T00:18:37.367Z,13.89
2022-10-03T00:19:39.808Z,13.72
2022-10-03T00:20:43.783Z,13.83
2022-10-03T00:21:46.756Z,13.92
2022-10-03T00:22:19.073Z,13.92
2022-10-03T00:23:04.449Z,13.85
2022-10-03T00:24:14.575Z,13.83
2022-10-03T00:24:49.155Z,13.78
2022-10-03T00:25:26.811Z,13.80
2022-10-03T00:26:23.966Z,13.87
2022-10-03T00:27:12.668Z,13.81
2022-10-03T00:28:27.099Z,13.87
2022-10-03T00:29:28.801Z,13.82
2022-10-03T00:30:15.263Z,13.77
2022-10-03T00:31:10.215Z,13.82
2022-10-03T00:31:58.314Z,13.82
2022-10-03T00:32:46.454Z,13.94
2022-10-03T00:33:32.260Z,13.73
2022-10-03T00:34:31.173Z,13.73
2022-10-03T00:35:26.211Z,13.74
2022-10-03T00:36:17.739Z,13.76
2022-10-03T00:37:11.066Z,13.72
2022-10-03T00:38:36.662Z,13.64
2022-10-03T00:39:32.126Z,13.74
2022-10-03T00:40:41.091Z,13.80
2022-10-03T00:41:31.349Z,13.66
2022-10-03T00:42:24.708Z,13.60
2022-10-03T00:43:24.437Z,13.63
2022-10-03T00:43:59.029Z,13.63
2022-10-03T00:44:46.463Z,13.58
2022-10-03T00:45:41.901Z,13.65
2022-10-03T00:46:38.403Z,13.64
2022-10-03T00:47:32.740Z,13.66
2022-10-03T00:48:16.206Z,13.47
2022-10-03T00:49:15.444Z,13.58
2022-10-03T00:50:05.844Z,13.54
2022-10-03T00:50:49.318Z,13.52
2022-10-03T00:51:51.880Z,13.61
2022-10-03T00:52:48.216Z,13.66
2022-10-03T00:53:33.085Z,13.51
2022-10-03T00:54:46.445Z,13.54
2022-10-03T00:55:30.518Z,13.68
2022-10-03T00:56:17.239Z,13.60
2022-10-03T00:57:23.048Z,13.57
2022-10-03T00:58:09.853Z,13.48
2022-10-03T00:59:19.395Z,13.49
2022-10-03T01:00:17.583Z,13.44
2022-10-03T01:00:51.499Z,13.30
2022-10-03T01:01:34.267Z,13.35
2022-10-03T01:02:44.431Z,13.49
2022-10-03T01:03:54.679Z,13.53
2022-10-03T01:04:44.962Z,13.62
2022-10-03T01:05:42.024Z,13.76
2022-10-03T01:06:53.334Z,13.70
2022-10-03T01:07:50.883Z,13.61
2022-10-03T01:08:35.272Z,13.69
2022-10-03T01:09:20.689Z,13.33
2022-10-03T01:10:22.328Z,13.33
2022-10-03T01:11:14.579Z,13.38
2022-10-03T01:12:10.054Z,13.44
2022-10-03T01:13:09.581Z,13.52
2022-10-03T01:14:09.188Z,13.43
2022-10-03T01:14:52.870Z,13.36
2022-10-03T01:15:42.601Z,13.42
2022-10-03T01:16:43.040Z,13.47
2022-10-03T01:17:36.912Z,13.30
2022-10-03T01:18:29.857Z,13.26
2022-10-03T01:19:26.983Z,13.25
2022-10-03T01:20:17.174Z,13.21
2022-10-03T01:21:04.967Z,13.29
2022-10-03T01:21:57.281Z,13.20
2022-10-03T01:22:57.723Z,13.09
2022-10-03T01:23:42.283Z,13.10
2022-10-03T01:24:41.796Z,13.08
2022-10-03T01:25:45.717Z,13.15
2022-10-03T01:26:41.968Z,13.08
2022-10-03T01:27:18.091Z,13.13
2022-10-03T01:28:20.829Z,13.23
2022-10-03T01:29:20.370Z,13.18
2022-10-03T01:30:22.946Z,13.28
2022-10-03T01:31:00.209Z,13.27
2022-10-03T01:31:40.921Z,13.13
2022-10-03T01:32:29.741Z,13.14
2022-10-03T01:33:11.185Z,13.20
2022-10-03T01:33:52.526Z,13.27
2022-10-03T01:34:45.323Z,13.25
2022-10-03T01:35:30.035Z,13.26
2022-10-03T01:36:19.428Z,13.32
2022-10-03T01:36:57.056Z,13.21
2022-10-03T01:37:47.364Z,13.11
2022-10-03T01:38:34.774Z,13.16
2022-10-03T01:39:21.244Z,13.06
2022-10-03T01:40:09.007Z,13.09
2022-10-03T01:40:51.727Z,13.14
2022-10-03T01:41:38.139Z,13.10
2022-10-03T01:42:20.726Z,13.17
2022-10-03T01:43:11.914Z,13.11
2022-10-03T01:44:01.984Z,13.19
2022-10-03T01:44:53.439Z,13.25
2022-10-03T01:45:55.559Z,13.16
2022-10-03T01:46:40.306Z,13.17
2022-10-03T01:47:29.527Z,12.99
2022-10-03T01:48:40.124Z,13.11
2022-10-03T01:49:32.572Z,13.09
2022-10-03T01:50:37.074Z,13.13
2022-10-03T01:51:33.592Z,13.04
2022-10-03T01:52:29.848Z,13.10
2022-10-03T01:53:30.343Z,12.98
2022-10-03T01:54:07.403Z,13.07
2022-10-03T01:55:03.966Z,13.03
2022-10-03T01:55:48.153Z,13.00
2022-10-03T01:56:45.145Z,13.04
2022-10-03T01:57:23.003Z,13.12
2022-10-03T01:58:01.759Z,13.07
2022-10-03T01:58:58.307Z,13.06
2022-10-03T01:59:30.089Z,13.11
2022-10-03T02:00:08.137Z,13.09
2022-10-03T02:01:12.085Z,13.08
2022-10-03T02:02:01.736Z,13.17
2022-10-03T02:03:05.345Z,13.19
2022-10-03T02:04:06.831Z,13.21
2022-10-03T02:04:45.780Z,13.21
2022-10-03T02:05:48.233Z,13.23
2022-10-03T02:06:32.715Z,13.26
2022-10-03T02:07:13.639Z,13.18
2022-10-03T02:07:45.424Z,13.26
2022-10-03T02:09:05.767Z,13.11
2022-10-03T02:10:01.666Z,13.06
2022-10-03T02:11:08.794Z,13.23
2022-10-03T02:12:00.714Z,13.20
2022-10-03T02:12:41.289Z,13.21
2022-10-03T02:13:40.871Z,13.16
2022-10-03T02:14:24.697Z,13.11
2022-10-03T02:15:06.077Z,12.94
2022-10-03T02:15:56.339Z,12.95
2022-10-03T02:16:46.661Z,12.98
2022-10-03T02:17:42.329Z,13.02
2022-10-03T02:18:23.680Z,13.03
2022-10-03T02:19:10.559Z,12.92
2022-10-03T02:19:56.139Z,13.05
2022-10-03T02:20:54.117Z,13.09
2022-10-03T02:21:30.119Z,13.13
2022-10-03T02:22:02.990Z,13.15
2022-10-03T02:22:50.606Z,13.12
2022-10-03T02:24:08.772Z,13.13
2022-10-03T02:24:44.051Z,13.07
2022-10-03T02:25:26.868Z,13.10
2022-10-03T02:26:10.660Z,13.07
2022-10-03T02:27:21.094Z,13.06
2022-10-03T02:27:58.898Z,13.09
2022-10-03T02:29:00.115Z,13.04
2022-10-03T02:29:37.637Z,12.99
2022-10-03T02:30:39.719Z,12.99
2022-10-03T02:31:48.560Z,13.09
2022-10-03T02:32:58.391Z,13.05
2022-10-03T02:33:48.946Z,13.13
2022-10-03T02:35:11.713Z,13.11
2022-10-03T02:35:46.059Z,13.09
2022-10-03T02:36:32.886Z,13.10
2022-10-03T02:37:41.416Z,13.04
2022-10-03T02:38:50.435Z,13.06
2022-10-03T02:39:34.643Z,12.98
2022-10-03T02:40:18.421Z,13.08
2022-10-03T02:41:16.784Z,13.18
2022-10-03T02:42:26.880Z,13.13
2022-10-03T02:43:16.946Z,13.11
2022-10-03T02:44:20.731Z,13.15
2022-10-03T02:45:08.955Z,13.05
2022-10-03T02:45:59.587Z,13.10
2022-10-03T02:46:50.135Z,13.04
2022-10-03T02:47:46.160Z,12.95
2022-10-03T02:48:49.247Z,12.97
2022-10-03T02:49:33.736Z,12.91
2022-10-03T02:50:19.110Z,12.96
2022-10-03T02:51:02.930Z,13.04
2022-10-03T02:51:37.681Z,13.08
2022-10-03T02:52:46.903Z,13.08
2022-10-03T02:53:56.502Z,13.07
2022-10-03T02:54:50.067Z,13.05
2022-10-03T02:55:44.122Z,13.02
2022-10-03T02:56:42.324Z,12.98
2022-10-03T02:57:39.536Z,13.00
2022-10-03T02:58:50.523Z,13.05
2022-10-03T02:59:43.711Z,13.06
2022-10-03T03:00:34.181Z,13.02
2022-10-03T03:01:41.153Z,13.02
2022-10-03T03:02:34.737Z,12.98
2022-10-03T03:03:17.582Z,12.92
2022-10-03T03:04:24.076Z,12.82
2022-10-03T03:05:44.059Z,12.96
2022-10-03T03:06:37.747Z,13.05
2022-10-03T03:07:38.279Z,13.01
2022-10-03T03:08:44.362Z,13.03
2022-10-03T03:09:42.323Z,12.93
2022-10-03T03:10:59.097Z,12.92
2022-10-03T03:12:03.648Z,13.04
2022-10-03T03:13:15.419Z,12.97
2022-10-03T03:13:55.240Z,12.93
2022-10-03T03:14:48.671Z,13.00
2022-10-03T03:15:23.830Z,13.03
2022-10-03T03:16:33.619Z,12.98
2022-10-03T03:17:36.973Z,13.02
2022-10-03T03:18:32.934Z,12.89
2022-10-03T03:19:33.756Z,12.94
2022-10-03T03:20:41.253Z,12.85
2022-10-03T03:21:25.134Z,12.92
2022-10-03T03:22:25.365Z,12.93
2022-10-03T03:23:33.562Z,12.95
2022-10-03T03:24:34.144Z,12.88
2022-10-03T03:25:30.423Z,12.70
2022-10-03T03:26:05.164Z,12.76
2022-10-03T03:26:55.105Z,12.78
2022-10-03T03:27:52.047Z,12.83
2022-10-03T03:28:36.407Z,12.90
2022-10-03T03:29:11.098Z,12.83
2022-10-03T03:29:57.853Z,12.81
2022-10-03T03:30:38.522Z,12.85
2022-10-03T03:31:14.788Z,12.78
2022-10-03T03:32:18.640Z,12.80
2022-10-03T03:33:05.030Z,12.84
2022-10-03T03:34:13.491Z,12.72
2022-10-03T03:35:05.756Z,12.75
2022-10-03T03:35:46.448Z,12.67
2022-10-03T03:36:28.182Z,12.65
2022-10-03T03:37:19.850Z,12.73
2022-10-03T03:38:02.612Z,12.84
2022-10-03T03:38:58.244Z,12.83
2022-10-03T03:39:36.213Z,12.81
2022-10-03T03:40:13.912Z,12.84
2022-10-03T03:41:05.083Z,12.77
2022-10-03T03:41:55.716Z,12.70
2022-10-03T03:42:58.631Z,12.68
2022-10-03T03:43:47.907Z,12.77
2022-10-03T03:44:44.499Z,12.69
2022-10-03T03:45:25.355Z,12.74
2022-10-03T03:46:26.539Z,12.74
2022-10-03T03:47:06.103Z,12.74
2022-10-03T03:47:43.884Z,12.75
2022-10-03T03:48:32.577Z,12.76
2022-10-03T03:49:21.309Z,12.70
2022-10-03T03:50:14.751Z,12.67
2022-10-03T03:51:11.540Z,12.62
2022-10-03T03:52:17.327Z,12.68
2022-10-03T03:53:10.553Z,12.75
2022-10-03T03:54:04.029Z,12.73
2022-10-03T03:54:41.433Z,12.71
2022-10-03T03:56:04.746Z,12.76
2022-10-03T03:56:39.571Z,12.69
2022-10-03T03:57:34.750Z,12.72
2022-10-03T03:58:06.577Z,12.76
2022-10-03T03:58:57.187Z,12.65
2022-10-03T04:00:02.278Z,12.73
2022-10-03T04:01:14.755Z,12.73
2022-10-03T04:02:22.654Z,12.54
2022-10-03T04:03:00.352Z,12.65
2022-10-03T04:04:07.198Z,12.61
2022-10-03T04:04:54.117Z,12.51
2022-10-03T04:05:43.662Z,12.62
2022-10-03T04:06:24.756Z,12.46
2022-10-03T04:07:21.791Z,12.54
2022-10-03T04:07:53.897Z,12.62
2022-10-03T04:08:37.825Z,12.58
2022-10-03T04:09:30.792Z,12.53
2022-10-03T04:10:50.288Z,12.59
2022-10-03T04:11:40.573Z,12.51
2022-10-03T04:12:42.117Z,12.59
2022-10-03T04:13:29.331Z,12.58
2022-10-03T04:14:28.629Z,12.61
2022-10-03T04:15:34.144Z,12.70
2022-10-03T04:17:15.669Z,12.54
2022-10-03T04:18:19.127Z,12.58
2022-10-03T04:19:29.356Z,12.59
2022-10-03T04:20:09.866Z,12.59
2022-10-03T04:20:55.938Z,12.61
2022-10-03T04:22:04.820Z,12.61
2022-10-03T04:22:42.724Z,12.63
2022-10-03T04:23:32.728Z,12.71
2022-10-03T04:24:15.125Z,12.71
2022-10-03T04:25:38.072Z,12.65
2022-10-03T04:26:59.610Z,12.59
2022-10-03T04:28:01.018Z,12.49
2022-10-03T04:28:45.447Z,12.46
2022-10-03T04:29:42.196Z,12.54
2022-10-03T04:30:23.267Z,12.54
2022-10-03T04:31:24.054Z,12.49
2022-10-03T04:32:15.014Z,12.40
2022-10-03T04:32:57.245Z,12.51
2022-10-03T04:33:40.119Z,12.50
2022-10-03T04:34:28.289Z,12.55
2022-10-03T04:35:02.806Z,12.59
2022-10-03T04:35:55.964Z,12.47
2022-10-03T04:36:53.874Z,12.49
2022-10-03T04:37:44.533Z,12.48
2022-10-03T04:38:35.038Z,12.52
2022-10-03T04:39:37.634Z,12.64
2022-10-03T04:40:41.873Z,12.61
2022-10-03T04:41:33.036Z,12.63
2022-10-03T04:42:13.773Z,12.63
2022-10-03T04:43:04.963Z,12.53
2022-10-03T04:43:46.008Z,12.49
2022-10-03T04:44:33.861Z,12.55
2022-10-03T04:45:33.496Z,12.55
2022-10-03T04:46:39.579Z,12.63
2022-10-03T04:47:28.640Z,12.61
2022-10-03T04:48:22.500Z,12.65
2022-10-03T04:48:54.378Z,12.66
2022-10-03T04:49:26.924Z,12.71
2022-10-03T04:50:03.196Z,12.71
2022-10-03T04:51:04.060Z,12.70
2022-10-03T04:51:55.675Z,12.58
2022-10-03T04:52:56.843Z,12.53
2022-10-03T04:53:39.988Z,12.58
2022-10-03T04:54:28.416Z,12.60
2022-10-03T04:55:06.790Z,12.49
2022-10-03T04:55:55.439Z,12.55
2022-10-03T04:56:33.018Z,12.55
2022-10-03T04:57:17.633Z,12.48
2022-10-03T04:58:25.578Z,12.53
2022-10-03T04:59:29.529Z,12.52
2022-10-03T05:00:41.694Z,12.51
2022-10-03T05:01:40.152Z,12.56
2022-10-03T05:02:40.835Z,12.44
2022-10-03T05:03:22.527Z,12.47
2022-10-03T05:04:26.605Z,12.39
2022-10-03T05:05:23.808Z,12.44
2022-10-03T05:06:06.223Z,12.43
2022-10-03T05:06:50.359Z,12.54
2022-10-03T05:07:22.448Z,12.60
2022-10-03T05:08:36.710Z,12.65
2022-10-03T05:09:27.188Z,12.69
2022-10-03T05:10:17.169Z,12.60
2022-10-03T05:11:15.498Z,12.64
2022-10-03T05:12:12.889Z,12.59
2022-10-03T05:12:53.768Z,12.58
2022-10-03T05:13:32.884Z,12.62
2022-10-03T05:14:12.808Z,12.55
2022-10-03T05:15:26.204Z,12.55
2022-10-03T05:16:26.652Z,12.60
2022-10-03T05:17:22.121Z,12.63
2022-10-03T05:18:26.682Z,12.72
2022-10-03T05:19:29.830Z,12.59
2022-10-03T05:20:28.391Z,12.48
2022-10-03T05:21:06.227Z,12.53
2022-10-03T05:21:59.959Z,12.63
2022-10-03T05:22:52.554Z,12.62
2022-10-03T05:23:47.459Z,12.53
2022-10-03T05:24:49.569Z,12.59
2022-10-03T05:25:53.599Z,12.68
2022-10-03T05:26:46.875Z,12.67
2022-10-03T05:27:41.180Z,12.84
2022-10-03T05:28:16.029Z,13.32
2022-10-03T05:29:15.303Z,13.88
2022-10-03T05:30:17.307Z,14.89
2022-10-03T05:30:57.977Z,15.98
2022-10-03T05:31:44.954Z,16.55
2022-10-03T05:32:35.412Z,17.08
2022-10-03T05:33:42.463Z,18.05
2022-10-03T05:34:29.675Z,18.30
2022-10-03T05:35:07.456Z,19.10
2022-10-03T05:35:54.398Z,19.32
2022-10-03T05:37:07.449Z,20.08
2022-10-03T05:37:47.765Z,20.65
2022-10-03T05:38:41.148Z,20.92
2022-10-03T05:39:52.740Z,21.38
2022-10-03T05:40:25.862Z,21.21
2022-10-03T05:41:12.662Z,21.41
2022-10-03T05:42:23.331Z,21.45
2022-10-03T05:43:14.073Z,21.94
2022-10-03T05:44:01.799Z,22.77
2022-10-03T05:44:44.151Z,22.87
2022-10-03T05:45:44.793Z,22.77
2022-10-03T05:46:26.765Z,22.45
2022-10-03T05:47:39.854Z,23.01
2022-10-03T05:48:31.873Z,23.60
2022-10-03T05:49:19.001Z,23.93
2022-10-03T05:50:18.127Z,23.87
2022-10-03T05:51:13.645Z,23.51
2022-10-03T05:52:07.486Z,23.69
2022-10-03T05:52:59.490Z,23.81
2022-10-03T05:53:40.364Z,23.86
2022-10-03T05:54:34.044Z,23.37
2022-10-03T05:55:35.175Z,22.83
2022-10-03T05:56:25.743Z,22.16
2022-10-03T05:57:48.489Z,21.97
2022-10-03T05:58:41.812Z,21.04
2022-10-03T05:59:42.604Z,20.88
2022-10-03T06:00:38.603Z,20.79
2022-10-03T06:01:16.684Z,20.75
2022-10-03T06:02:08.998Z,20.33
2022-10-03T06:02:41.010Z,20.16
2022-10-03T06:03:44.100Z,20.05
2022-10-03T06:04:53.461Z,19.87
2022-10-03T06:06:03.426Z,19.30
2022-10-03T06:06:53.748Z,19.24
2022-10-03T06:07:52.955Z,19.29
2022-10-03T06:08:41.857Z,19.38
2022-10-03T06:09:46.673Z,19.05
2022-10-03T06:10:34.195Z,18.78
2022-10-03T06:11:19.976Z,18.63
2022-10-03T06:11:54.813Z,18.35
2022-10-03T06:12:54.552Z,18.21
2022-10-03T06:14:17.121Z,18.30
2022-10-03T06:15:27.860Z,18.12
2022-10-03T06:16:40.153Z,17.86
2022-10-03T06:17:30.623Z,17.64
2022-10-03T06:18:08.179Z,17.40
2022-10-03T06:19:07.959Z,17.26
2022-10-03T06:19:57.640Z,17.19
2022-10-03T06:20:47.901Z,17.05
2022-10-03T06:21:44.102Z,17.16
2022-10-03T06:22:25.162Z,17.12
2022-10-03T06:23:03.573Z,16.98
2022-10-03T06:23:47.882Z,17.06
2022-10-03T06:24:33.409Z,17.08
2022-10-03T06:25:26.205Z,17.13
2022-10-03T06:26:54.958Z,17.09
2022-10-03T06:27:45.904Z,16.99
2022-10-03T06:28:43.446Z,16.72
2022-10-03T06:29:36.212Z,16.55
2022-10-03T06:30:22.054Z,16.69
2022-10-03T06:30:59.690Z,16.72
2022-10-03T06:31:53.446Z,16.21
2022-10-03T06:32:46.048Z,16.37
2022-10-03T06:33:42.751Z,16.43
2022-10-03T06:34:29.943Z,16.64
2022-10-03T06:35:46.112Z,16.51
2022-10-03T06:36:41.778Z,16.87
2022-10-03T06:37:39.787Z,17.09
2022-10-03T06:38:37.115Z,17.39
2022-10-03T06:39:24.239Z,17.50
2022-10-03T06:40:33.655Z,17.71
2022-10-03T06:41:27.121Z,17.95
2022-10-03T06:42:17.413Z,17.91
2022-10-03T06:42:55.894Z,17.94
2022-10-03T06:43:46.792Z,17.58
2022-10-03T06:44:34.010Z,17.79
2022-10-03T06:45:20.885Z,18.02
2022-10-03T06:46:07.823Z,18.18
2022-10-03T06:46:56.583Z,18.29
2022-10-03T06:47:31.587Z,18.28
2022-10-03T06:48:43.573Z,18.31
2022-10-03T06:49:34.207Z,18.50
2022-10-03T06:50:24.964Z,18.75
2022-10-03T06:51:14.135Z,18.57
2022-10-03T06:51:57.958Z,18.44
2022-10-03T06:52:41.941Z,18.60
2022-10-03T06:53:16.609Z,18.68
2022-10-03T06:54:16.425Z,18.78
2022-10-03T06:55:26.151Z,18.80
2022-10-03T06:56:24.552Z,18.81
2022-10-03T06:57:30.258Z,18.72
2022-10-03T06:58:27.329Z,18.68
2022-10-03T06:59:27.217Z,19.06
2022-10-03T07:00:06.755Z,19.16
2022-10-03T07:01:12.818Z,19.18
2022-10-03T07:02:15.746Z,19.13
2022-10-03T07:03:24.042Z,18.96
2022-10-03T07:04:05.368Z,18.90
2022-10-03T07:05:09.668Z,18.95
2022-10-03T07:05:53.378Z,18.96
2022-10-03T07:06:43.691Z,19.13
2022-10-03T07:07:33.759Z,19.27
2022-10-03T07:08:36.452Z,19.29
2022-10-03T07:09:42.428Z,18.93
2022-10-03T07:10:48.124Z,19.06
2022-10-03T07:11:40.274Z,19.31
2022-10-03T07:12:52.539Z,19.31
2022-10-03T07:13:33.372Z,19.43
2022-10-03T07:14:27.885Z,19.02
2022-10-03T07:15:16.557Z,19.23
2022-10-03T07:16:28.271Z,19.15
2022-10-03T07:17:09.360Z,18.94
2022-10-03T07:17:53.167Z,19.32
2022-10-03T07:18:46.411Z,19.38
2022-10-03T07:19:20.068Z,19.49
2022-10-03T07:20:06.951Z,19.47
2022-10-03T07:21:01.971Z,19.60
2022-10-03T07:21:59.985Z,19.50
2022-10-03T07:22:50.142Z,19.43
2022-10-03T07:23:40.479Z,19.64
2022-10-03T07:25:01.777Z,19.56
2022-10-03T07:25:46.023Z,19.79
2022-10-03T07:26:55.559Z,19.67
2022-10-03T07:27:50.801Z,19.69
2022-10-03T07:28:38.321Z,19.66
2022-10-03T07:29:18.288Z,19.45
2022-10-03T07:30:18.076Z,19.70
2022-10-03T07:31:21.846Z,19.98
2022-10-03T07:31:59.795Z,20.21
2022-10-03T07:33:12.838Z,20.27
2022-10-03T07:34:01.212Z,20.14
2022-10-03T07:34:38.953Z,20.18
2022-10-03T07:35:24.705Z,20.33
2022-10-03T07:36:43.944Z,20.21
2022-10-03T07:38:05.040Z,20.20
2022-10-03T07:39:11.740Z,20.30
2022-10-03T07:39:52.725Z,20.52
2022-10-03T07:40:39.809Z,19.60
2022-10-03T07:41:32.432Z,19.93
2022-10-03T07:42:22.497Z,20.15
2022-10-03T07:43:27.010Z,20.34
2022-10-03T07:44:16.145Z,20.31
2022-10-03T07:45:30.246Z,20.48
2022-10-03T07:46:26.925Z,20.30
2022-10-03T07:47:46.362Z,20.30
2022-10-03T07:48:32.402Z,20.34
2022-10-03T07:49:25.385Z,20.39
2022-10-03T07:50:03.181Z,20.57
2022-10-03T07:50:40.566Z,20.49
2022-10-03T07:51:21.553Z,20.22
2022-10-03T07:52:05.751Z,20.30
2022-10-03T07:53:08.340Z,20.48
2022-10-03T07:53:51.932Z,20.46
2022-10-03T07:55:00.675Z,19.79
2022-10-03T07:56:00.422Z,19.90
2022-10-03T07:57:04.070Z,19.90
2022-10-03T07:58:08.317Z,20.03
2022-10-03T07:58:58.813Z,20.28
2022-10-03T07:59:42.731Z,20.50
2022-10-03T08:00:42.324Z,19.76
2022-10-03T08:01:42.812Z,20.03
2022-10-03T08:02:42.275Z,20.36
2022-10-03T08:03:42.056Z,20.47
2022-10-03T08:04:46.009Z,20.69
2022-10-03T08:05:33.052Z,20.52
2022-10-03T08:06:05.330Z,20.25
2022-10-03T08:06:50.448Z,20.05
2022-10-03T08:07:26.078Z,20.25
2022-10-03T08:08:33.556Z,20.33
2022-10-03T08:09:14.462Z,20.14
2022-10-03T08:09:52.015Z,20.22
2022-10-03T08:10:49.553Z,20.08
2022-10-03T08:11:23.822Z,20.38
2022-10-03T08:12:01.409Z,20.65
2022-10-03T08:13:14.709Z,20.64
2022-10-03T08:13:49.465Z,20.60
2022-10-03T08:14:43.518Z,20.40
2022-10-03T08:15:27.968Z,20.56
2022-10-03T08:15:59.905Z,20.50
2022-10-03T08:16:50.603Z,20.61
2022-10-03T08:17:59.828Z,20.08
2022-10-03T08:18:56.939Z,20.54
2022-10-03T08:19:41.322Z,20.75
2022-10-03T08:21:10.080Z,20.90
2022-10-03T08:22:09.212Z,20.99
2022-10-03T08:22:59.321Z,20.80
2022-10-03T08:23:34.231Z,20.76
2022-10-03T08:24:24.419Z,20.68
2022-10-03T08:25:33.802Z,20.57
2022-10-03T08:26:29.651Z,20.77
2022-10-03T08:27:04.356Z,20.93
2022-10-03T08:27:45.100Z,21.06
2022-10-03T08:28:35.295Z,21.09
2022-10-03T08:29:23.741Z,20.98
2022-10-03T08:30:18.113Z,21.03
2022-10-03T08:30:55.998Z,20.72
2022-10-03T08:32:22.271Z,20.67
2022-10-03T08:33:17.177Z,20.87
2022-10-03T08:33:49.297Z,20.24
2022-10-03T08:34:53.731Z,20.53
2022-10-03T08:35:25.550Z,20.63
2022-10-03T08:36:06.189Z,20.98
2022-10-03T08:37:01.067Z,21.01
2022-10-03T08:38:03.333Z,21.12
2022-10-03T08:38:47.203Z,21.08
2022-10-03T08:39:41.355Z,21.09
2022-10-03T08:40:34.752Z,21.29
2022-10-03T08:41:34.392Z,21.56
2022-10-03T08:42:21.114Z,21.38
2022-10-03T08:43:23.150Z,21.45
2022-10-03T08:44:07.118Z,21.39
2022-10-03T08:44:51.087Z,21.36
2022-10-03T08:45:58.444Z,21.24
2022-10-03T08:46:36.014Z,21.14
2022-10-03T08:47:21.723Z,21.12
2022-10-03T08:48:31.189Z,21.03
2022-10-03T08:49:14.014Z,21.12
2022-10-03T08:50:13.628Z,20.80
2022-10-03T08:51:00.419Z,20.93
2022-10-03T08:51:59.668Z,21.31
2022-10-03T08:53:09.424Z,21.49
2022-10-03T08:53:56.187Z,21.12
2022-10-03T08:55:10.113Z,21.21
2022-10-03T08:55:57.485Z,21.42
2022-10-03T08:56:38.717Z,21.39
2022-10-03T08:57:10.497Z,20.70
2022-10-03T08:58:03.589Z,20.56
2022-10-03T08:59:09.403Z,20.51
2022-10-03T09:00:02.171Z,20.58
2022-10-03T09:00:57.447Z,20.70
2022-10-03T09:01:48.043Z,20.37
2022-10-03T09:03:28.259Z,20.29
2022-10-03T09:03:58.451Z,20.46
2022-10-03T09:04:48.610Z,20.57
2022-10-03T09:05:38.969Z,20.41
2022-10-03T09:06:28.222Z,20.10
2022-10-03T09:07:19.405Z,20.39
2022-10-03T09:08:19.078Z,20.62
2022-10-03T09:09:22.740Z,20.56
2022-10-03T09:10:25.845Z,20.68
2022-10-03T09:11:03.255Z,21.05
2022-10-03T09:11:35.059Z,21.25
2022-10-03T09:12:32.200Z,21.19
2022-10-03T09:13:31.478Z,21.13
2022-10-03T09:14:32.275Z,21.08
2022-10-03T09:15:16.304Z,21.12
2022-10-03T09:16:12.730Z,21.28
2022-10-03T09:17:08.480Z,21.43
2022-10-03T09:17:40.562Z,21.41
2022-10-03T09:18:47.876Z,21.45
2022-10-03T09:19:52.289Z,21.12
2022-10-03T09:20:39.344Z,21.06
2022-10-03T09:21:58.472Z,20.99
2022-10-03T09:22:58.190Z,21.09
2022-10-03T09:23:55.259Z,21.22
2022-10-03T09:24:39.034Z,21.38
2022-10-03T09:25:30.418Z,21.28
2022-10-03T09:26:11.424Z,21.37
2022-10-03T09:27:04.757Z,21.53
2022-10-03T09:27:57.672Z,21.67
2022-10-03T09:28:39.575Z,21.39
2022-10-03T09:29:37.914Z,21.65
2022-10-03T09:30:23.167Z,21.66
2022-10-03T09:31:04.039Z,21.77
2022-10-03T09:31:51.072Z,21.64
2022-10-03T09:32:54.402Z,21.14
2022-10-03T09:33:39.244Z,20.80
2022-10-03T09:34:51.314Z,21.10
2022-10-03T09:35:25.742Z,21.36
2022-10-03T09:36:42.059Z,21.06
2022-10-03T09:37:38.403Z,21.18
2022-10-03T09:38:40.797Z,21.47
2022-10-03T09:39:28.239Z,21.64
2022-10-03T09:40:21.227Z,21.73
2022-10-03T09:41:14.119Z,21.54
2022-10-03T09:42:10.977Z,21.43
2022-10-03T09:42:54.427Z,21.34
2022-10-03T09:43:44.541Z,21.51
2022-10-03T09:44:38.216Z,21.68
2022-10-03T09:45:16.241Z,21.60
2022-10-03T09:45:51.096Z,21.44
2022-10-03T09:47:19.253Z,21.35
2022-10-03T09:48:17.423Z,21.29
2022-10-03T09:49:04.334Z,21.36
2022-10-03T09:50:19.251Z,21.71
2022-10-03T09:51:00.093Z,21.73
2022-10-03T09:51:44.180Z,21.52
2022-10-03T09:52:50.926Z,21.02
2022-10-03T09:53:41.604Z,21.14
2022-10-03T09:54:37.954Z,21.23
2022-10-03T09:55:39.359Z,21.39
2022-10-03T09:56:26.462Z,21.68
2022-10-03T09:57:07.643Z,21.16
2022-10-03T09:57:58.005Z,21.28
2022-10-03T09:58:51.017Z,21.60
2022-10-03T09:59:34.618Z,21.83
2022-10-03T10:00:17.380Z,21.76
2022-10-03T10:01:27.503Z,21.71
2022-10-03T10:02:16.736Z,22.03
2022-10-03T10:02:57.456Z,22.30
2022-10-03T10:03:32.278Z,21.94
2022-10-03T10:04:54.889Z,21.94
2022-10-03T10:05:49.251Z,22.13
2022-10-03T10:06:34.174Z,22.42
2022-10-03T10:07:21.130Z,22.52
2022-10-03T10:08:48.637Z,22.44
2022-10-03T10:09:23.064Z,22.62
2022-10-03T10:10:32.354Z,22.33
2022-10-03T10:11:44.602Z,22.25
2022-10-03T10:12:30.667Z,22.51
2022-10-03T10:13:44.285Z,22.53
2022-10-03T10:14:42.198Z,22.42
2022-10-03T10:15:47.600Z,22.10
2022-10-03T10:16:48.815Z,22.43
2022-10-03T10:17:45.070Z,22.40
2022-10-03T10:18:16.892Z,21.88
2022-10-03T10:19:08.777Z,22.10
2022-10-03T10:19:51.421Z,22.23
2022-10-03T10:20:54.832Z,22.08
2022-10-03T10:21:46.864Z,22.55
2022-10-03T10:22:43.045Z,22.61
2022-10-03T10:23:52.861Z,22.78
2022-10-03T10:24:46.598Z,22.67
2022-10-03T10:25:25.021Z,22.66
2022-10-03T10:26:09.828Z,22.45
2022-10-03T10:26:56.567Z,22.14
2022-10-03T10:28:02.347Z,21.94
2022-10-03T10:29:07.349Z,21.89
2022-10-03T10:30:03.090Z,21.55
2022-10-03T10:31:04.285Z,21.31
2022-10-03T10:32:27.106Z,21.11
2022-10-03T10:33:17.310Z,21.23
2022-10-03T10:34:10.645Z,21.37
2022-10-03T10:35:00.516Z,21.63
2022-10-03T10:36:09.231Z,21.81
2022-10-03T10:36:59.146Z,21.86
2022-10-03T10:37:57.183Z,21.78
2022-10-03T10:39:03.068Z,21.87
2022-10-03T10:39:51.198Z,22.04
2022-10-03T10:40:49.223Z,22.17
2022-10-03T10:41:44.546Z,22.34
2022-10-03T10:42:51.626Z,22.11
2022-10-03T10:44:07.843Z,21.97
2022-10-03T10:45:10.823Z,21.35
2022-10-03T10:46:06.830Z,20.69
2022-10-03T10:47:12.600Z,20.46
2022-10-03T10:47:44.453Z,20.29
2022-10-03T10:49:03.819Z,20.03
2022-10-03T10:50:18.208Z,20.09
2022-10-03T10:51:07.121Z,20.02
2022-10-03T10:52:06.981Z,20.15
2022-10-03T10:53:00.379Z,20.57
2022-10-03T10:53:53.916Z,20.43
2022-10-03T10:55:04.708Z,20.67
2022-10-03T10:56:11.875Z,21.00
2022-10-03T10:56:56.142Z,20.94
2022-10-03T10:57:33.344Z,21.15
2022-10-03T10:59:00.263Z,21.08
2022-10-03T11:00:02.850Z,21.28
2022-10-03T11:00:55.939Z,21.28
2022-10-03T11:01:30.905Z,21.23
2022-10-03T11:02:44.681Z,21.23
2022-10-03T11:03:54.317Z,20.96
2022-10-03T11:05:04.340Z,20.91
2022-10-03T11:06:01.076Z,20.71
2022-10-03T11:07:04.334Z,20.60
2022-10-03T11:07:55.971Z,20.65
2022-10-03T11:09:05.542Z,20.67
2022-10-03T11:09:52.210Z,20.95
2022-10-03T11:10:34.720Z,20.81
2022-10-03T11:11:51.286Z,21.05
2022-10-03T11:12:38.832Z,21.29
2022-10-03T11:13:35.854Z,21.32
2022-10-03T11:14:19.708Z,21.27
2022-10-03T11:15:16.905Z,21.15
2022-10-03T11:16:07.090Z,20.91
2022-10-03T11:17:00.798Z,21.09
2022-10-03T11:17:53.836Z,21.26
2022-10-03T11:19:04.315Z,21.28
2022-10-03T11:19:50.415Z,21.20
2022-10-03T11:20:43.908Z,21.32
2022-10-03T11:21:46.072Z,21.16
2022-10-03T11:22:26.929Z,21.21
2022-10-03T11:23:13.562Z,21.30
2022-10-03T11:24:13.285Z,21.24
2022-10-03T11:25:08.357Z,21.26
2022-10-03T11:26:26.197Z,21.27
2022-10-03T11:27:22.819Z,20.40
2022-10-03T11:28:32.450Z,20.02
2022-10-03T11:29:28.860Z,20.03
2022-10-03T11:30:22.998Z,19.97
2022-10-03T11:31:06.520Z,20.03